Gaultois, Canada
Current Conditions -  °F | °C
As of 6:00 PM on Thursday 23 Oct 2014 (Local Time) from LFVP Reporting Station
Broken Clouds Broken Clouds  
Wind Chill: 50°   Ceiling: 1500
Heat Index: 50°   Visibility: 6mi
Dew Point: 46°   Wind: 20mph
Humidity: 87%   Direction: 90°E
Pressure: 30.18"   Gusts: NA
Location:  47.6°N, 55.92°W
Report Text: LFVP 232000Z 09017KT 9999 BKN015 BKN100 10/08 Q1022 NOSIG
Loading
Personal Weather Stations






























Interactive Weather Map New forecast layout! Learn more

10-Day Weather Forecast

Advertisements
Track Severe Weather on mobile